Hlavní strana
METAR-TAF:

METAR-TAF

Letiště :

Tromsø, Norsko

zeměpisná šířka: 69-41N, zeměpisná délka: 018-55E, výška: 1 m

Aktuální stav počasí

Zpráva byla vytvořena před 7 minutami, v 08:50 UTC
Jihojihozápadní vítr 11 kt
Teplota 12°C
Vlhkost vzduchu 54%
Tlak 1023 hPa
Viditelnost 10 km a více
Žádná oblačnost pod 1500 m, nevyskytují se cumulonimby.

METAR: ENTC 250850Z 21011KT CAVOK 12/03 Q1023 NOSIG RMK WIND 2600FT 19011KT

Čas: 10:57 (08:57 UTC)

Předpověď počasí

Předpověď platná od 25 v 06 UTC do 26 v 06 UTC
vítr z různých směrů 5 kt
Viditelnost 10 km a více
Polojasno ve výšce 6000 ft
Dočasný
od 25 v 06 UTC do 25 v 19 UTC
Jižní vítr 12 kt

TAF: ENTC 2506/2606 VRB05KT 9999 SCT060 TEMPO 2506/2519 19012KT

Stav a předpovědi počasí z více než 4 000 letišť (zprávy METAR a TAF).

Červené a žluté tečky na mapě představují dostupné meteorologické stanice.

Když kurzor umístíte na tečku, zobrazí se název stanice.

Pak kliknutím zobrazíte stav a předpověď počasí.

Chcete-li změnit mapu, kliknutím na zelené tlačítko se znaménkem +mapu přiblížíte, kliknutím na zelené tlačítko se znaménkem – mapu oddálíte a kliknutím na zelené šipky přejdete na sousední mapy.


METAR-TAF: